sensor_id;sensor_type;location;lat;lon;timestamp;P1;durP1;ratioP1;P2;durP2;ratioP2
78744;SDS011;68064;53.100;8.824;2023-06-04T00:00:11;3.53;;;0.20;;
78744;SDS011;68064;53.100;8.824;2023-06-04T00:01:14;2.60;;;0.17;;
78744;SDS011;68064;53.100;8.824;2023-06-04T00:02:15;2.83;;;0.15;;
78744;SDS011;68064;53.100;8.824;2023-06-04T00:04:17;3.35;;;0.30;;
78744;SDS011;68064;53.100;8.824;2023-06-04T00:05:18;1.75;;;0.20;;
78744;SDS011;68064;53.100;8.824;2023-06-04T00:06:19;2.60;;;0.20;;
78744;SDS011;68064;53.100;8.824;2023-06-04T00:08:21;1.88;;;0.10;;
78744;SDS011;68064;53.100;8.824;2023-06-04T00:09:22;2.85;;;0.20;;
78744;SDS011;68064;53.100;8.824;2023-06-04T00:10:23;3.58;;;0.30;;
78744;SDS011;68064;53.100;8.824;2023-06-04T00:11:24;3.55;;;0.20;;
78744;SDS011;68064;53.100;8.824;2023-06-04T00:13:26;4.43;;;0.28;;
78744;SDS011;68064;53.100;8.824;2023-06-04T00:14:27;2.75;;;0.20;;
78744;SDS011;68064;53.100;8.824;2023-06-04T00:15:28;3.20;;;0.20;;
78744;SDS011;68064;53.100;8.824;2023-06-04T00:16:31;3.05;;;0.20;;
78744;SDS011;68064;53.100;8.824;2023-06-04T00:17:32;1.67;;;0.10;;
78744;SDS011;68064;53.100;8.824;2023-06-04T00:19:34;3.40;;;0.17;;
78744;SDS011;68064;53.100;8.824;2023-06-04T00:20:35;4.20;;;0.10;;
78744;SDS011;68064;53.100;8.824;2023-06-04T00:21:36;3.55;;;0.20;;
78744;SDS011;68064;53.100;8.824;2023-06-04T00:22:37;3.90;;;0.32;;
78744;SDS011;68064;53.100;8.824;2023-06-04T00:23:38;1.92;;;0.10;;
78744;SDS011;68064;53.100;8.824;2023-06-04T00:24:39;1.58;;;0.10;;
78744;SDS011;68064;53.100;8.824;2023-06-04T00:26:41;2.88;;;0.10;;
78744;SDS011;68064;53.100;8.824;2023-06-04T00:27:42;2.63;;;0.10;;
78744;SDS011;68064;53.100;8.824;2023-06-04T00:29:44;2.80;;;0.10;;
78744;SDS011;68064;53.100;8.824;2023-06-04T00:30:45;1.83;;;0.20;;
78744;SDS011;68064;53.100;8.824;2023-06-04T00:31:48;2.38;;;0.15;;
78744;SDS011;68064;53.100;8.824;2023-06-04T00:32:49;7.05;;;0.90;;
78744;SDS011;68064;53.100;8.824;2023-06-04T00:33:50;2.05;;;0.30;;
78744;SDS011;68064;53.100;8.824;2023-06-04T00:35:52;3.35;;;0.30;;
78744;SDS011;68064;53.100;8.824;2023-06-04T00:36:53;3.00;;;0.20;;
78744;SDS011;68064;53.100;8.824;2023-06-04T00:37:54;1.83;;;0.20;;
78744;SDS011;68064;53.100;8.824;2023-06-04T00:38:55;4.10;;;0.30;;
78744;SDS011;68064;53.100;8.824;2023-06-04T00:39:56;2.88;;;0.20;;
78744;SDS011;68064;53.100;8.824;2023-06-04T00:40:57;2.40;;;0.20;;
78744;SDS011;68064;53.100;8.824;2023-06-04T00:41:58;2.25;;;0.10;;
78744;SDS011;68064;53.100;8.824;2023-06-04T00:42:59;2.60;;;0.13;;
78744;SDS011;68064;53.100;8.824;2023-06-04T00:44:00;3.75;;;0.20;;
78744;SDS011;68064;53.100;8.824;2023-06-04T00:46:03;2.03;;;0.10;;
78744;SDS011;68064;53.100;8.824;2023-06-04T00:47:06;2.70;;;0.20;;
78744;SDS011;68064;53.100;8.824;2023-06-04T00:48:07;2.95;;;0.32;;
78744;SDS011;68064;53.100;8.824;2023-06-04T00:50:09;2.38;;;0.17;;
78744;SDS011;68064;53.100;8.824;2023-06-04T00:51:10;2.72;;;0.13;;
78744;SDS011;68064;53.100;8.824;2023-06-04T00:53:14;2.33;;;0.20;;
78744;SDS011;68064;53.100;8.824;2023-06-04T00:55:16;2.70;;;0.25;;
78744;SDS011;68064;53.100;8.824;2023-06-04T00:56:17;5.20;;;0.40;;
78744;SDS011;68064;53.100;8.824;2023-06-04T00:57:19;3.35;;;0.30;;
78744;SDS011;68064;53.100;8.824;2023-06-04T00:58:20;2.30;;;0.20;;
78744;SDS011;68064;53.100;8.824;2023-06-04T00:59:21;2.53;;;0.17;;
78744;SDS011;68064;53.100;8.824;2023-06-04T01:01:25;2.20;;;0.10;;
78744;SDS011;68064;53.100;8.824;2023-06-04T01:02:33;3.03;;;0.10;;
78744;SDS011;68064;53.100;8.824;2023-06-04T01:03:38;2.33;;;0.20;;
78744;SDS011;68064;53.100;8.824;2023-06-04T01:04:46;3.70;;;0.40;;
78744;SDS011;68064;53.100;8.824;2023-06-04T01:05:59;2.50;;;0.17;;
78744;SDS011;68064;53.100;8.824;2023-06-04T01:07:05;1.88;;;0.15;;
78744;SDS011;68064;53.100;8.824;2023-06-04T01:08:09;2.00;;;0.10;;
78744;SDS011;68064;53.100;8.824;2023-06-04T01:09:11;2.00;;;0.15;;
78744;SDS011;68064;53.100;8.824;2023-06-04T01:10:14;3.30;;;0.20;;
78744;SDS011;68064;53.100;8.824;2023-06-04T01:11:15;3.63;;;0.47;;
78744;SDS011;68064;53.100;8.824;2023-06-04T01:12:16;1.77;;;0.10;;
78744;SDS011;68064;53.100;8.824;2023-06-04T01:13:17;2.00;;;0.10;;
78744;SDS011;68064;53.100;8.824;2023-06-04T01:14:18;2.33;;;0.20;;
78744;SDS011;68064;53.100;8.824;2023-06-04T01:15:20;2.63;;;0.30;;
78744;SDS011;68064;53.100;8.824;2023-06-04T01:16:21;2.80;;;0.25;;
78744;SDS011;68064;53.100;8.824;2023-06-04T01:17:23;2.13;;;0.10;;
78744;SDS011;68064;53.100;8.824;2023-06-04T01:18:31;2.08;;;0.10;;
78744;SDS011;68064;53.100;8.824;2023-06-04T01:21:09;3.97;;;0.10;;
78744;SDS011;68064;53.100;8.824;2023-06-04T01:22:16;2.60;;;0.30;;
78744;SDS011;68064;53.100;8.824;2023-06-04T01:23:30;2.63;;;0.15;;
78744;SDS011;68064;53.100;8.824;2023-06-04T01:24:34;2.53;;;0.30;;
78744;SDS011;68064;53.100;8.824;2023-06-04T01:25:38;2.63;;;0.10;;
78744;SDS011;68064;53.100;8.824;2023-06-04T01:26:41;2.75;;;0.30;;
78744;SDS011;68064;53.100;8.824;2023-06-04T01:27:42;4.03;;;0.20;;
78744;SDS011;68064;53.100;8.824;2023-06-04T01:29:46;3.63;;;0.20;;
78744;SDS011;68064;53.100;8.824;2023-06-04T01:30:47;1.88;;;0.10;;
78744;SDS011;68064;53.100;8.824;2023-06-04T01:31:49;3.35;;;0.30;;
78744;SDS011;68064;53.100;8.824;2023-06-04T01:32:52;2.53;;;0.35;;
78744;SDS011;68064;53.100;8.824;2023-06-04T01:33:56;2.30;;;0.20;;
78744;SDS011;68064;53.100;8.824;2023-06-04T01:34:57;3.08;;;0.10;;
78744;SDS011;68064;53.100;8.824;2023-06-04T01:35:59;3.20;;;0.20;;
78744;SDS011;68064;53.100;8.824;2023-06-04T01:37:00;1.67;;;0.10;;
78744;SDS011;68064;53.100;8.824;2023-06-04T01:38:01;1.70;;;0.10;;
78744;SDS011;68064;53.100;8.824;2023-06-04T01:40:04;3.63;;;0.35;;
78744;SDS011;68064;53.100;8.824;2023-06-04T01:41:06;2.38;;;0.30;;
78744;SDS011;68064;53.100;8.824;2023-06-04T01:42:07;3.60;;;0.20;;
78744;SDS011;68064;53.100;8.824;2023-06-04T01:43:09;3.65;;;0.20;;
78744;SDS011;68064;53.100;8.824;2023-06-04T01:44:10;4.00;;;0.10;;
78744;SDS011;68064;53.100;8.824;2023-06-04T01:45:11;1.67;;;0.20;;
78744;SDS011;68064;53.100;8.824;2023-06-04T01:47:13;2.92;;;0.20;;
78744;SDS011;68064;53.100;8.824;2023-06-04T01:49:16;3.67;;;0.20;;
78744;SDS011;68064;53.100;8.824;2023-06-04T01:50:17;2.97;;;0.22;;
78744;SDS011;68064;53.100;8.824;2023-06-04T01:52:19;2.65;;;0.28;;
78744;SDS011;68064;53.100;8.824;2023-06-04T01:53:20;2.72;;;0.40;;
78744;SDS011;68064;53.100;8.824;2023-06-04T01:54:21;1.92;;;0.10;;
78744;SDS011;68064;53.100;8.824;2023-06-04T01:55:23;3.47;;;0.28;;
78744;SDS011;68064;53.100;8.824;2023-06-04T01:57:25;1.60;;;0.20;;
78744;SDS011;68064;53.100;8.824;2023-06-04T01:58:26;3.47;;;0.10;;
78744;SDS011;68064;53.100;8.824;2023-06-04T01:59:27;3.80;;;0.45;;
78744;SDS011;68064;53.100;8.824;2023-06-04T02:00:28;1.80;;;0.20;;
78744;SDS011;68064;53.100;8.824;2023-06-04T02:01:29;3.65;;;0.20;;
78744;SDS011;68064;53.100;8.824;2023-06-04T02:02:30;3.35;;;0.30;;
78744;SDS011;68064;53.100;8.824;2023-06-04T02:03:31;2.10;;;0.10;;
78744;SDS011;68064;53.100;8.824;2023-06-04T02:04:34;2.63;;;0.20;;
78744;SDS011;68064;53.100;8.824;2023-06-04T02:05:35;2.88;;;0.20;;
78744;SDS011;68064;53.100;8.824;2023-06-04T02:06:36;3.53;;;0.13;;
78744;SDS011;68064;53.100;8.824;2023-06-04T02:07:38;3.13;;;0.30;;
78744;SDS011;68064;53.100;8.824;2023-06-04T02:08:40;2.17;;;0.10;;
78744;SDS011;68064;53.100;8.824;2023-06-04T02:09:41;2.83;;;0.20;;
78744;SDS011;68064;53.100;8.824;2023-06-04T02:10:42;2.38;;;0.20;;
78744;SDS011;68064;53.100;8.824;2023-06-04T02:11:43;2.83;;;0.20;;
78744;SDS011;68064;53.100;8.824;2023-06-04T02:12:52;4.35;;;0.20;;
78744;SDS011;68064;53.100;8.824;2023-06-04T02:13:54;4.13;;;0.38;;
78744;SDS011;68064;53.100;8.824;2023-06-04T02:14:55;2.75;;;0.17;;
78744;SDS011;68064;53.100;8.824;2023-06-04T02:15:56;4.50;;;0.20;;
78744;SDS011;68064;53.100;8.824;2023-06-04T02:16:57;2.92;;;0.20;;
78744;SDS011;68064;53.100;8.824;2023-06-04T02:17:59;1.75;;;0.10;;
78744;SDS011;68064;53.100;8.824;2023-06-04T02:19:12;4.68;;;0.22;;
78744;SDS011;68064;53.100;8.824;2023-06-04T02:20:15;6.53;;;0.20;;
78744;SDS011;68064;53.100;8.824;2023-06-04T02:21:16;2.40;;;0.22;;
78744;SDS011;68064;53.100;8.824;2023-06-04T02:22:18;2.22;;;0.15;;
78744;SDS011;68064;53.100;8.824;2023-06-04T02:23:20;4.18;;;0.15;;
78744;SDS011;68064;53.100;8.824;2023-06-04T02:25:22;2.42;;;0.20;;
78744;SDS011;68064;53.100;8.824;2023-06-04T02:26:23;2.45;;;0.20;;
78744;SDS011;68064;53.100;8.824;2023-06-04T02:27:24;1.38;;;0.10;;
78744;SDS011;68064;53.100;8.824;2023-06-04T02:28:25;3.78;;;0.40;;
78744;SDS011;68064;53.100;8.824;2023-06-04T02:29:26;2.53;;;0.20;;
78744;SDS011;68064;53.100;8.824;2023-06-04T02:31:28;2.97;;;0.10;;
78744;SDS011;68064;53.100;8.824;2023-06-04T02:32:29;2.83;;;0.20;;
78744;SDS011;68064;53.100;8.824;2023-06-04T02:33:30;4.95;;;0.15;;
78744;SDS011;68064;53.100;8.824;2023-06-04T02:34:31;3.20;;;0.20;;
78744;SDS011;68064;53.100;8.824;2023-06-04T02:35:34;3.33;;;0.20;;
78744;SDS011;68064;53.100;8.824;2023-06-04T02:36:35;3.03;;;0.20;;
78744;SDS011;68064;53.100;8.824;2023-06-04T02:37:36;2.20;;;0.20;;
78744;SDS011;68064;53.100;8.824;2023-06-04T02:38:37;1.50;;;0.13;;
78744;SDS011;68064;53.100;8.824;2023-06-04T02:39:38;2.67;;;0.10;;
78744;SDS011;68064;53.100;8.824;2023-06-04T02:40:39;2.20;;;0.15;;
78744;SDS011;68064;53.100;8.824;2023-06-04T02:41:42;3.22;;;0.20;;
78744;SDS011;68064;53.100;8.824;2023-06-04T02:42:43;1.83;;;0.20;;
78744;SDS011;68064;53.100;8.824;2023-06-04T02:44:45;3.22;;;0.20;;
78744;SDS011;68064;53.100;8.824;2023-06-04T02:45:46;2.40;;;0.10;;
78744;SDS011;68064;53.100;8.824;2023-06-04T02:47:48;3.55;;;0.30;;
78744;SDS011;68064;53.100;8.824;2023-06-04T02:48:49;5.50;;;0.30;;
78744;SDS011;68064;53.100;8.824;2023-06-04T02:49:50;3.70;;;0.45;;
78744;SDS011;68064;53.100;8.824;2023-06-04T02:50:53;3.60;;;0.30;;
78744;SDS011;68064;53.100;8.824;2023-06-04T02:51:54;4.40;;;0.30;;
78744;SDS011;68064;53.100;8.824;2023-06-04T02:52:55;2.80;;;0.13;;
78744;SDS011;68064;53.100;8.824;2023-06-04T02:53:56;2.83;;;0.52;;
78744;SDS011;68064;53.100;8.824;2023-06-04T02:54:57;3.08;;;0.82;;
78744;SDS011;68064;53.100;8.824;2023-06-04T02:55:58;2.35;;;0.20;;
78744;SDS011;68064;53.100;8.824;2023-06-04T02:56:59;2.70;;;0.20;;
78744;SDS011;68064;53.100;8.824;2023-06-04T02:58:01;3.17;;;0.30;;
78744;SDS011;68064;53.100;8.824;2023-06-04T02:59:02;2.03;;;0.22;;
78744;SDS011;68064;53.100;8.824;2023-06-04T03:01:04;2.47;;;0.13;;
78744;SDS011;68064;53.100;8.824;2023-06-04T03:02:05;3.88;;;0.38;;
78744;SDS011;68064;53.100;8.824;2023-06-04T03:03:06;2.50;;;0.20;;
78744;SDS011;68064;53.100;8.824;2023-06-04T03:04:07;4.03;;;0.30;;
78744;SDS011;68064;53.100;8.824;2023-06-04T03:05:09;2.67;;;0.20;;
78744;SDS011;68064;53.100;8.824;2023-06-04T03:06:13;2.63;;;0.20;;
78744;SDS011;68064;53.100;8.824;2023-06-04T03:07:15;2.55;;;0.15;;
78744;SDS011;68064;53.100;8.824;2023-06-04T03:08:19;5.80;;;0.47;;
78744;SDS011;68064;53.100;8.824;2023-06-04T03:09:20;3.10;;;0.57;;
78744;SDS011;68064;53.100;8.824;2023-06-04T03:10:21;3.30;;;0.20;;
78744;SDS011;68064;53.100;8.824;2023-06-04T03:11:22;5.57;;;0.30;;
78744;SDS011;68064;53.100;8.824;2023-06-04T03:12:23;2.60;;;0.17;;
78744;SDS011;68064;53.100;8.824;2023-06-04T03:13:25;3.85;;;0.20;;
78744;SDS011;68064;53.100;8.824;2023-06-04T03:14:26;2.92;;;0.30;;
78744;SDS011;68064;53.100;8.824;2023-06-04T03:15:27;3.53;;;0.20;;
78744;SDS011;68064;53.100;8.824;2023-06-04T03:16:28;2.28;;;0.10;;
78744;SDS011;68064;53.100;8.824;2023-06-04T03:17:29;4.57;;;0.30;;
78744;SDS011;68064;53.100;8.824;2023-06-04T03:18:31;3.63;;;0.52;;
78744;SDS011;68064;53.100;8.824;2023-06-04T03:19:32;2.50;;;0.20;;
78744;SDS011;68064;53.100;8.824;2023-06-04T03:20:33;2.72;;;0.20;;
78744;SDS011;68064;53.100;8.824;2023-06-04T03:21:35;4.10;;;0.40;;
78744;SDS011;68064;53.100;8.824;2023-06-04T03:22:36;2.67;;;0.20;;
78744;SDS011;68064;53.100;8.824;2023-06-04T03:23:37;2.85;;;0.10;;
78744;SDS011;68064;53.100;8.824;2023-06-04T03:25:41;3.53;;;0.20;;
78744;SDS011;68064;53.100;8.824;2023-06-04T03:26:42;3.83;;;0.47;;
78744;SDS011;68064;53.100;8.824;2023-06-04T03:27:43;3.05;;;0.75;;
78744;SDS011;68064;53.100;8.824;2023-06-04T03:28:44;3.35;;;0.20;;
78744;SDS011;68064;53.100;8.824;2023-06-04T03:29:45;2.85;;;0.20;;
78744;SDS011;68064;53.100;8.824;2023-06-04T03:30:46;4.22;;;0.50;;
78744;SDS011;68064;53.100;8.824;2023-06-04T03:31:47;3.15;;;0.30;;
78744;SDS011;68064;53.100;8.824;2023-06-04T03:32:48;4.38;;;0.30;;
78744;SDS011;68064;53.100;8.824;2023-06-04T03:33:49;3.17;;;0.32;;
78744;SDS011;68064;53.100;8.824;2023-06-04T03:34:50;5.88;;;0.50;;
78744;SDS011;68064;53.100;8.824;2023-06-04T03:35:51;4.45;;;0.45;;
78744;SDS011;68064;53.100;8.824;2023-06-04T03:36:54;6.75;;;0.45;;
78744;SDS011;68064;53.100;8.824;2023-06-04T03:37:55;3.10;;;0.43;;
78744;SDS011;68064;53.100;8.824;2023-06-04T03:38:56;3.40;;;0.50;;
78744;SDS011;68064;53.100;8.824;2023-06-04T03:39:58;5.40;;;0.20;;
78744;SDS011;68064;53.100;8.824;2023-06-04T03:40:59;2.80;;;0.40;;
78744;SDS011;68064;53.100;8.824;2023-06-04T03:42:00;3.67;;;0.30;;
78744;SDS011;68064;53.100;8.824;2023-06-04T03:43:01;4.63;;;0.90;;
78744;SDS011;68064;53.100;8.824;2023-06-04T03:44:02;4.47;;;0.30;;
78744;SDS011;68064;53.100;8.824;2023-06-04T03:45:03;5.78;;;0.30;;
78744;SDS011;68064;53.100;8.824;2023-06-04T03:46:05;2.13;;;0.20;;
78744;SDS011;68064;53.100;8.824;2023-06-04T03:47:06;5.07;;;0.38;;
78744;SDS011;68064;53.100;8.824;2023-06-04T03:48:07;4.00;;;0.52;;
78744;SDS011;68064;53.100;8.824;2023-06-04T03:49:08;2.28;;;0.20;;
78744;SDS011;68064;53.100;8.824;2023-06-04T03:50:10;6.07;;;0.50;;
78744;SDS011;68064;53.100;8.824;2023-06-04T03:51:11;3.53;;;0.30;;
78744;SDS011;68064;53.100;8.824;2023-06-04T03:53:14;2.80;;;0.43;;
78744;SDS011;68064;53.100;8.824;2023-06-04T03:54:15;3.60;;;0.20;;
78744;SDS011;68064;53.100;8.824;2023-06-04T03:55:16;4.05;;;0.30;;
78744;SDS011;68064;53.100;8.824;2023-06-04T03:56:17;3.42;;;0.50;;
78744;SDS011;68064;53.100;8.824;2023-06-04T03:58:19;4.25;;;0.30;;
78744;SDS011;68064;53.100;8.824;2023-06-04T03:59:20;2.70;;;0.17;;
78744;SDS011;68064;53.100;8.824;2023-06-04T04:00:21;3.92;;;0.30;;
78744;SDS011;68064;53.100;8.824;2023-06-04T04:01:22;4.43;;;0.38;;
78744;SDS011;68064;53.100;8.824;2023-06-04T04:02:24;4.25;;;0.63;;
78744;SDS011;68064;53.100;8.824;2023-06-04T04:03:25;4.05;;;0.40;;
78744;SDS011;68064;53.100;8.824;2023-06-04T04:04:26;3.25;;;0.30;;
78744;SDS011;68064;53.100;8.824;2023-06-04T04:05:27;3.05;;;0.20;;
78744;SDS011;68064;53.100;8.824;2023-06-04T04:06:28;2.75;;;0.20;;
78744;SDS011;68064;53.100;8.824;2023-06-04T04:07:31;4.47;;;0.40;;
78744;SDS011;68064;53.100;8.824;2023-06-04T04:08:32;3.53;;;0.32;;
78744;SDS011;68064;53.100;8.824;2023-06-04T04:09:33;2.60;;;0.20;;
78744;SDS011;68064;53.100;8.824;2023-06-04T04:10:34;4.13;;;0.30;;
78744;SDS011;68064;53.100;8.824;2023-06-04T04:11:35;3.08;;;0.20;;
78744;SDS011;68064;53.100;8.824;2023-06-04T04:12:36;5.47;;;0.30;;
78744;SDS011;68064;53.100;8.824;2023-06-04T04:13:37;2.80;;;0.20;;
78744;SDS011;68064;53.100;8.824;2023-06-04T04:14:40;3.00;;;0.35;;
78744;SDS011;68064;53.100;8.824;2023-06-04T04:15:41;4.20;;;0.50;;
78744;SDS011;68064;53.100;8.824;2023-06-04T04:16:42;3.05;;;0.20;;
78744;SDS011;68064;53.100;8.824;2023-06-04T04:18:44;2.17;;;0.30;;
78744;SDS011;68064;53.100;8.824;2023-06-04T04:19:45;4.10;;;0.30;;
78744;SDS011;68064;53.100;8.824;2023-06-04T04:20:46;4.13;;;0.30;;
78744;SDS011;68064;53.100;8.824;2023-06-04T04:21:48;2.97;;;0.52;;
78744;SDS011;68064;53.100;8.824;2023-06-04T04:22:50;3.22;;;0.20;;
78744;SDS011;68064;53.100;8.824;2023-06-04T04:23:51;1.75;;;0.20;;
78744;SDS011;68064;53.100;8.824;2023-06-04T04:24:52;5.00;;;0.75;;
78744;SDS011;68064;53.100;8.824;2023-06-04T04:25:53;2.58;;;0.20;;
78744;SDS011;68064;53.100;8.824;2023-06-04T04:26:54;5.82;;;0.80;;
78744;SDS011;68064;53.100;8.824;2023-06-04T04:27:55;5.22;;;0.32;;
78744;SDS011;68064;53.100;8.824;2023-06-04T04:28:56;7.57;;;0.60;;
78744;SDS011;68064;53.100;8.824;2023-06-04T04:29:57;3.80;;;0.30;;
78744;SDS011;68064;53.100;8.824;2023-06-04T04:30:58;4.63;;;0.40;;
78744;SDS011;68064;53.100;8.824;2023-06-04T04:32:01;2.83;;;0.40;;
78744;SDS011;68064;53.100;8.824;2023-06-04T04:33:02;5.88;;;0.65;;
78744;SDS011;68064;53.100;8.824;2023-06-04T04:34:03;3.15;;;0.30;;
78744;SDS011;68064;53.100;8.824;2023-06-04T04:35:07;4.03;;;0.47;;
78744;SDS011;68064;53.100;8.824;2023-06-04T04:36:09;3.92;;;0.45;;
78744;SDS011;68064;53.100;8.824;2023-06-04T04:37:10;2.75;;;0.20;;
78744;SDS011;68064;53.100;8.824;2023-06-04T04:38:12;3.20;;;0.40;;
78744;SDS011;68064;53.100;8.824;2023-06-04T04:39:13;5.57;;;0.40;;
78744;SDS011;68064;53.100;8.824;2023-06-04T04:40:14;4.15;;;0.30;;
78744;SDS011;68064;53.100;8.824;2023-06-04T04:41:15;2.55;;;0.20;;
78744;SDS011;68064;53.100;8.824;2023-06-04T04:42:17;4.25;;;0.28;;
78744;SDS011;68064;53.100;8.824;2023-06-04T04:44:28;3.38;;;0.30;;
78744;SDS011;68064;53.100;8.824;2023-06-04T04:45:29;3.25;;;0.30;;
78744;SDS011;68064;53.100;8.824;2023-06-04T04:46:31;2.65;;;0.20;;
78744;SDS011;68064;53.100;8.824;2023-06-04T04:47:32;5.28;;;1.13;;
78744;SDS011;68064;53.100;8.824;2023-06-04T04:48:33;5.85;;;0.50;;
78744;SDS011;68064;53.100;8.824;2023-06-04T04:49:34;3.65;;;0.32;;
78744;SDS011;68064;53.100;8.824;2023-06-04T04:50:35;6.25;;;0.50;;
78744;SDS011;68064;53.100;8.824;2023-06-04T04:51:36;2.17;;;0.20;;
78744;SDS011;68064;53.100;8.824;2023-06-04T04:52:37;4.80;;;0.50;;
78744;SDS011;68064;53.100;8.824;2023-06-04T04:53:40;4.03;;;0.40;;
78744;SDS011;68064;53.100;8.824;2023-06-04T04:54:41;2.60;;;0.10;;
78744;SDS011;68064;53.100;8.824;2023-06-04T04:55:42;5.75;;;0.52;;
78744;SDS011;68064;53.100;8.824;2023-06-04T04:56:43;4.22;;;0.38;;
78744;SDS011;68064;53.100;8.824;2023-06-04T04:57:44;5.63;;;0.50;;
78744;SDS011;68064;53.100;8.824;2023-06-04T04:58:45;4.75;;;0.73;;
78744;SDS011;68064;53.100;8.824;2023-06-04T04:59:46;3.25;;;0.60;;
78744;SDS011;68064;53.100;8.824;2023-06-04T05:00:47;5.25;;;0.77;;
78744;SDS011;68064;53.100;8.824;2023-06-04T05:02:49;4.85;;;0.57;;
78744;SDS011;68064;53.100;8.824;2023-06-04T05:03:50;4.05;;;0.32;;
78744;SDS011;68064;53.100;8.824;2023-06-04T05:04:51;6.10;;;0.93;;
78744;SDS011;68064;53.100;8.824;2023-06-04T05:05:52;5.28;;;0.47;;
78744;SDS011;68064;53.100;8.824;2023-06-04T05:06:53;5.00;;;0.50;;
78744;SDS011;68064;53.100;8.824;2023-06-04T05:07:54;3.45;;;0.52;;
78744;SDS011;68064;53.100;8.824;2023-06-04T05:09:58;5.85;;;0.50;;
78744;SDS011;68064;53.100;8.824;2023-06-04T05:10:59;5.80;;;0.45;;
78744;SDS011;68064;53.100;8.824;2023-06-04T05:12:00;6.38;;;0.68;;
78744;SDS011;68064;53.100;8.824;2023-06-04T05:13:01;3.97;;;0.40;;
78744;SDS011;68064;53.100;8.824;2023-06-04T05:15:03;3.17;;;0.30;;
78744;SDS011;68064;53.100;8.824;2023-06-04T05:16:05;7.00;;;0.60;;
78744;SDS011;68064;53.100;8.824;2023-06-04T05:17:06;4.93;;;0.50;;
78744;SDS011;68064;53.100;8.824;2023-06-04T05:18:07;2.60;;;0.30;;
78744;SDS011;68064;53.100;8.824;2023-06-04T05:19:08;4.53;;;0.70;;
78744;SDS011;68064;53.100;8.824;2023-06-04T05:20:09;3.70;;;0.35;;
78744;SDS011;68064;53.100;8.824;2023-06-04T05:21:10;6.22;;;0.70;;
78744;SDS011;68064;53.100;8.824;2023-06-04T05:22:11;4.97;;;0.40;;
78744;SDS011;68064;53.100;8.824;2023-06-04T05:23:13;7.65;;;0.70;;
78744;SDS011;68064;53.100;8.824;2023-06-04T05:25:16;5.70;;;1.00;;
78744;SDS011;68064;53.100;8.824;2023-06-04T05:26:17;7.20;;;1.02;;
78744;SDS011;68064;53.100;8.824;2023-06-04T05:27:18;6.63;;;0.63;;
78744;SDS011;68064;53.100;8.824;2023-06-04T05:28:19;8.00;;;1.02;;
78744;SDS011;68064;53.100;8.824;2023-06-04T05:29:21;7.88;;;1.10;;
78744;SDS011;68064;53.100;8.824;2023-06-04T05:30:22;4.55;;;0.88;;
78744;SDS011;68064;53.100;8.824;2023-06-04T05:31:23;6.93;;;0.93;;
78744;SDS011;68064;53.100;8.824;2023-06-04T05:32:25;6.10;;;0.90;;
78744;SDS011;68064;53.100;8.824;2023-06-04T05:33:26;7.18;;;0.70;;
78744;SDS011;68064;53.100;8.824;2023-06-04T05:34:27;8.13;;;0.73;;
78744;SDS011;68064;53.100;8.824;2023-06-04T05:35:28;6.32;;;0.93;;
78744;SDS011;68064;53.100;8.824;2023-06-04T05:37:33;6.70;;;1.23;;
78744;SDS011;68064;53.100;8.824;2023-06-04T05:38:34;8.95;;;1.50;;
78744;SDS011;68064;53.100;8.824;2023-06-04T05:39:37;5.82;;;0.80;;
78744;SDS011;68064;53.100;8.824;2023-06-04T05:40:38;6.40;;;0.60;;
78744;SDS011;68064;53.100;8.824;2023-06-04T05:41:39;7.82;;;1.25;;
78744;SDS011;68064;53.100;8.824;2023-06-04T05:42:40;6.32;;;1.58;;
78744;SDS011;68064;53.100;8.824;2023-06-04T05:43:41;7.53;;;0.77;;
78744;SDS011;68064;53.100;8.824;2023-06-04T05:44:42;5.45;;;0.90;;
78744;SDS011;68064;53.100;8.824;2023-06-04T05:45:43;6.45;;;0.90;;
78744;SDS011;68064;53.100;8.824;2023-06-04T05:46:44;7.20;;;1.20;;
78744;SDS011;68064;53.100;8.824;2023-06-04T05:47:45;6.90;;;0.80;;
78744;SDS011;68064;53.100;8.824;2023-06-04T05:48:46;8.27;;;1.00;;
78744;SDS011;68064;53.100;8.824;2023-06-04T05:49:48;6.72;;;0.95;;
78744;SDS011;68064;53.100;8.824;2023-06-04T05:50:49;9.23;;;1.40;;
78744;SDS011;68064;53.100;8.824;2023-06-04T05:51:50;7.32;;;0.60;;
78744;SDS011;68064;53.100;8.824;2023-06-04T05:52:51;7.68;;;0.70;;
78744;SDS011;68064;53.100;8.824;2023-06-04T05:53:52;7.70;;;1.10;;
78744;SDS011;68064;53.100;8.824;2023-06-04T05:54:54;6.28;;;0.90;;
78744;SDS011;68064;53.100;8.824;2023-06-04T05:55:55;7.78;;;1.40;;
78744;SDS011;68064;53.100;8.824;2023-06-04T05:56:56;6.90;;;0.98;;
78744;SDS011;68064;53.100;8.824;2023-06-04T05:57:57;6.95;;;1.17;;
78744;SDS011;68064;53.100;8.824;2023-06-04T05:58:59;6.85;;;1.05;;
78744;SDS011;68064;53.100;8.824;2023-06-04T06:00:00;6.97;;;1.15;;
78744;SDS011;68064;53.100;8.824;2023-06-04T06:01:01;7.90;;;1.23;;
78744;SDS011;68064;53.100;8.824;2023-06-04T06:02:02;7.22;;;1.35;;
78744;SDS011;68064;53.100;8.824;2023-06-04T06:03:03;6.50;;;1.17;;
78744;SDS011;68064;53.100;8.824;2023-06-04T06:04:04;9.10;;;0.82;;
78744;SDS011;68064;53.100;8.824;2023-06-04T06:05:05;6.63;;;1.45;;
78744;SDS011;68064;53.100;8.824;2023-06-04T06:06:07;6.40;;;1.83;;
78744;SDS011;68064;53.100;8.824;2023-06-04T06:07:08;6.50;;;1.55;;
78744;SDS011;68064;53.100;8.824;2023-06-04T06:09:10;8.45;;;1.05;;
78744;SDS011;68064;53.100;8.824;2023-06-04T06:10:12;6.68;;;0.80;;
78744;SDS011;68064;53.100;8.824;2023-06-04T06:11:14;6.30;;;0.98;;
78744;SDS011;68064;53.100;8.824;2023-06-04T06:12:15;6.63;;;0.90;;
78744;SDS011;68064;53.100;8.824;2023-06-04T06:13:17;7.75;;;0.60;;
78744;SDS011;68064;53.100;8.824;2023-06-04T06:15:18;7.10;;;0.90;;
78744;SDS011;68064;53.100;8.824;2023-06-04T06:16:20;5.97;;;0.70;;
78744;SDS011;68064;53.100;8.824;2023-06-04T06:17:21;7.40;;;1.00;;
78744;SDS011;68064;53.100;8.824;2023-06-04T06:18:22;9.63;;;0.90;;
78744;SDS011;68064;53.100;8.824;2023-06-04T06:19:23;5.68;;;1.00;;
78744;SDS011;68064;53.100;8.824;2023-06-04T06:20:24;6.63;;;1.02;;
78744;SDS011;68064;53.100;8.824;2023-06-04T06:21:25;5.60;;;0.70;;
78744;SDS011;68064;53.100;8.824;2023-06-04T06:22:26;6.13;;;0.63;;
78744;SDS011;68064;53.100;8.824;2023-06-04T06:23:27;5.65;;;0.70;;
78744;SDS011;68064;53.100;8.824;2023-06-04T06:24:29;6.75;;;0.63;;
78744;SDS011;68064;53.100;8.824;2023-06-04T06:26:32;6.05;;;0.73;;
78744;SDS011;68064;53.100;8.824;2023-06-04T06:27:33;6.40;;;0.80;;
78744;SDS011;68064;53.100;8.824;2023-06-04T06:28:34;7.70;;;1.00;;
78744;SDS011;68064;53.100;8.824;2023-06-04T06:29:35;7.00;;;0.70;;
78744;SDS011;68064;53.100;8.824;2023-06-04T06:30:36;6.93;;;0.80;;
78744;SDS011;68064;53.100;8.824;2023-06-04T06:31:37;7.00;;;0.98;;
78744;SDS011;68064;53.100;8.824;2023-06-04T06:32:38;5.47;;;0.93;;
78744;SDS011;68064;53.100;8.824;2023-06-04T06:33:39;5.82;;;0.85;;
78744;SDS011;68064;53.100;8.824;2023-06-04T06:34:40;6.90;;;1.30;;
78744;SDS011;68064;53.100;8.824;2023-06-04T06:35:41;7.60;;;0.65;;
78744;SDS011;68064;53.100;8.824;2023-06-04T06:37:43;5.50;;;0.82;;
78744;SDS011;68064;53.100;8.824;2023-06-04T06:38:44;7.30;;;1.63;;
78744;SDS011;68064;53.100;8.824;2023-06-04T06:40:47;6.40;;;0.80;;
78744;SDS011;68064;53.100;8.824;2023-06-04T06:41:49;6.68;;;0.50;;
78744;SDS011;68064;53.100;8.824;2023-06-04T06:42:50;7.55;;;0.80;;
78744;SDS011;68064;53.100;8.824;2023-06-04T06:43:51;5.38;;;0.60;;
78744;SDS011;68064;53.100;8.824;2023-06-04T06:44:52;4.85;;;1.38;;
78744;SDS011;68064;53.100;8.824;2023-06-04T06:45:53;5.55;;;0.65;;
78744;SDS011;68064;53.100;8.824;2023-06-04T06:46:54;6.57;;;0.50;;
78744;SDS011;68064;53.100;8.824;2023-06-04T06:47:55;7.57;;;0.80;;
78744;SDS011;68064;53.100;8.824;2023-06-04T06:48:56;5.82;;;0.70;;
78744;SDS011;68064;53.100;8.824;2023-06-04T06:49:57;5.43;;;0.80;;
78744;SDS011;68064;53.100;8.824;2023-06-04T06:50:58;3.40;;;0.40;;